createdAt,value
2023-04-26T00:00:19.588Z,2.00
2023-04-26T00:02:47.190Z,2.67
2023-04-26T00:05:14.662Z,2.07
2023-04-26T00:07:41.415Z,2.10
2023-04-26T00:10:08.580Z,2.10
2023-04-26T00:12:36.441Z,2.00
2023-04-26T00:15:03.805Z,2.87
2023-04-26T00:17:30.477Z,2.40
2023-04-26T00:19:57.917Z,1.90
2023-04-26T00:22:25.513Z,2.77
2023-04-26T00:24:52.115Z,2.63
2023-04-26T00:27:18.742Z,2.47
2023-04-26T00:29:46.157Z,2.60
2023-04-26T00:32:13.655Z,1.97
2023-04-26T00:34:41.172Z,2.53
2023-04-26T00:37:08.470Z,1.97
2023-04-26T00:39:35.987Z,1.73
2023-04-26T00:42:02.903Z,2.30
2023-04-26T00:44:29.575Z,2.43
2023-04-26T00:46:56.305Z,2.53
2023-04-26T00:49:23.335Z,2.20
2023-04-26T00:51:50.131Z,2.33
2023-04-26T00:54:16.820Z,2.10
2023-04-26T00:56:43.628Z,2.13
2023-04-26T00:59:10.304Z,1.53
2023-04-26T01:01:38.008Z,2.50
2023-04-26T01:04:05.494Z,2.13
2023-04-26T01:06:33.803Z,2.10
2023-04-26T01:09:16.460Z,2.30
2023-04-26T01:11:44.069Z,2.00
2023-04-26T01:14:11.251Z,1.73
2023-04-26T01:16:38.589Z,1.80
2023-04-26T01:19:13.098Z,2.70
2023-04-26T01:21:39.906Z,2.50
2023-04-26T01:24:07.075Z,1.90
2023-04-26T01:26:33.723Z,1.93
2023-04-26T01:29:00.373Z,1.93
2023-04-26T01:31:27.104Z,2.27
2023-04-26T01:33:53.789Z,2.37
2023-04-26T01:36:20.658Z,2.33
2023-04-26T01:38:47.251Z,2.43
2023-04-26T01:41:13.909Z,1.60
2023-04-26T02:15:38.434Z,1.90
2023-04-26T02:18:05.725Z,2.00
2023-04-26T02:20:32.524Z,2.43
2023-04-26T02:22:59.968Z,2.40
2023-04-26T02:25:26.839Z,2.10
2023-04-26T02:27:54.116Z,2.00
2023-04-26T02:30:21.336Z,1.90
2023-04-26T02:32:47.992Z,2.60
2023-04-26T02:35:14.835Z,2.27
2023-04-26T02:37:41.950Z,2.37
2023-04-26T02:40:16.565Z,2.33
2023-04-26T02:42:44.384Z,1.40
2023-04-26T02:45:11.050Z,1.43
2023-04-26T02:47:38.868Z,2.27
2023-04-26T02:50:10.494Z,2.33
2023-04-26T02:52:37.981Z,1.37
2023-04-26T02:55:04.781Z,2.30
2023-04-26T02:57:31.831Z,1.97
2023-04-26T02:59:58.554Z,2.20
2023-04-26T03:02:25.367Z,2.30
2023-04-26T03:04:52.060Z,2.10
2023-04-26T03:07:18.736Z,2.17
2023-04-26T03:09:46.485Z,2.43
2023-04-26T03:12:13.960Z,2.43
2023-04-26T03:14:40.576Z,3.20
2023-04-26T03:17:07.188Z,1.93
2023-04-26T03:19:35.167Z,2.10
2023-04-26T03:22:03.748Z,2.37
2023-04-26T03:24:30.948Z,1.53
2023-04-26T03:26:58.016Z,1.87
2023-04-26T03:29:24.620Z,1.80
2023-04-26T03:31:51.391Z,2.13
2023-04-26T03:34:18.134Z,1.90
2023-04-26T03:36:45.686Z,2.20
2023-04-26T03:39:12.532Z,2.00
2023-04-26T03:41:41.533Z,1.60
2023-04-26T03:44:11.850Z,2.37
2023-04-26T03:46:39.894Z,1.33
2023-04-26T03:49:06.658Z,1.03
2023-04-26T03:51:33.316Z,2.23
2023-04-26T03:53:59.948Z,1.93
2023-04-26T03:56:27.592Z,1.90
2023-04-26T03:58:54.357Z,2.40
2023-04-26T04:01:21.076Z,1.83
2023-04-26T04:03:48.140Z,1.47
2023-04-26T04:06:15.964Z,1.73
2023-04-26T04:08:43.147Z,2.80
2023-04-26T04:11:10.988Z,1.90
2023-04-26T04:13:39.355Z,2.13
2023-04-26T04:16:07.075Z,1.80
2023-04-26T04:18:33.915Z,2.10
2023-04-26T04:21:01.681Z,2.00
2023-04-26T04:23:28.511Z,2.03
2023-04-26T04:25:55.447Z,2.13
2023-04-26T04:28:23.151Z,1.97
2023-04-26T04:30:50.119Z,1.67
2023-04-26T04:33:18.743Z,2.67
2023-04-26T04:35:45.497Z,1.50
2023-04-26T04:38:12.234Z,2.33
2023-04-26T04:40:39.011Z,1.73
2023-04-26T04:43:05.660Z,2.10
2023-04-26T04:45:32.763Z,2.43
2023-04-26T04:48:00.772Z,2.30
2023-04-26T04:50:28.264Z,2.43
2023-04-26T04:52:55.850Z,2.30
2023-04-26T04:55:22.584Z,1.77
2023-04-26T04:57:49.306Z,1.97
2023-04-26T05:00:16.483Z,2.10
2023-04-26T05:02:48.005Z,2.30
2023-04-26T05:05:15.916Z,2.00
2023-04-26T05:07:43.033Z,1.30
2023-04-26T05:10:11.764Z,2.30
2023-04-26T05:12:38.350Z,2.03
2023-04-26T05:15:05.380Z,2.30
2023-04-26T05:17:32.992Z,1.90
2023-04-26T05:20:07.531Z,2.03
2023-04-26T05:22:36.878Z,2.63
2023-04-26T05:25:05.323Z,2.23
2023-04-26T05:27:32.500Z,2.10
2023-04-26T05:30:25.459Z,2.20
2023-04-26T05:33:04.953Z,2.43
2023-04-26T05:35:35.390Z,2.00
2023-04-26T05:38:02.216Z,1.53
2023-04-26T05:40:29.827Z,2.00
2023-04-26T05:42:57.305Z,2.40
2023-04-26T05:45:25.511Z,2.37
2023-04-26T05:47:52.749Z,2.17
2023-04-26T05:50:20.252Z,2.00
2023-04-26T05:52:47.187Z,2.50
2023-04-26T05:55:14.005Z,2.03
2023-04-26T05:57:45.068Z,2.00
2023-04-26T06:00:13.167Z,0.93
2023-04-26T06:02:49.073Z,1.47
2023-04-26T06:05:17.912Z,1.80
2023-04-26T06:07:44.945Z,1.23
2023-04-26T06:10:13.203Z,1.77
2023-04-26T06:12:40.960Z,1.60
2023-04-26T06:15:08.873Z,2.13
2023-04-26T06:17:42.260Z,2.40
2023-04-26T06:20:10.153Z,2.33
2023-04-26T06:22:38.189Z,1.63
2023-04-26T06:25:08.913Z,1.93
2023-04-26T06:27:39.090Z,1.60
2023-04-26T06:30:07.929Z,1.90
2023-04-26T06:32:38.527Z,1.70
2023-04-26T06:35:05.452Z,2.10
2023-04-26T06:37:32.077Z,1.60
2023-04-26T06:39:58.830Z,2.10
2023-04-26T06:42:26.410Z,1.00
2023-04-26T06:45:23.714Z,1.57
2023-04-26T06:47:53.611Z,1.60
2023-04-26T06:50:23.733Z,2.10
2023-04-26T06:52:50.383Z,1.97
2023-04-26T06:55:16.976Z,1.83
2023-04-26T06:57:44.465Z,2.13
2023-04-26T07:00:11.383Z,2.50
2023-04-26T07:02:38.278Z,1.90
2023-04-26T07:05:05.375Z,1.93
2023-04-26T07:07:32.155Z,1.63
2023-04-26T07:09:58.887Z,1.83
2023-04-26T07:12:25.598Z,1.90
2023-04-26T07:14:52.303Z,1.90
2023-04-26T07:17:18.977Z,2.20
2023-04-26T07:19:45.761Z,1.83
2023-04-26T07:22:16.030Z,2.47
2023-04-26T07:24:42.889Z,1.00
2023-04-26T07:27:10.210Z,0.93
2023-04-26T07:29:37.767Z,1.50
2023-04-26T07:32:05.065Z,1.70
2023-04-26T07:34:31.915Z,1.63
2023-04-26T07:36:58.661Z,4.77
2023-04-26T07:39:25.383Z,1.90
2023-04-26T07:41:54.327Z,1.63
2023-04-26T07:44:21.273Z,1.77
2023-04-26T07:46:47.910Z,1.30
2023-04-26T07:49:14.620Z,1.30
2023-04-26T07:51:41.647Z,1.40
2023-04-26T07:54:08.485Z,2.17
2023-04-26T07:56:35.126Z,1.40
2023-04-26T07:59:01.887Z,2.00
2023-04-26T08:01:29.155Z,1.87
2023-04-26T08:03:56.210Z,1.90
2023-04-26T08:06:23.552Z,1.73
2023-04-26T08:08:53.225Z,1.33
2023-04-26T08:11:19.981Z,1.13
2023-04-26T08:13:47.678Z,1.10
2023-04-26T08:16:14.428Z,1.60
2023-04-26T08:18:41.249Z,1.70
2023-04-26T08:21:07.930Z,1.80
2023-04-26T08:23:36.607Z,2.20
2023-04-26T08:26:04.017Z,2.70
2023-04-26T08:28:30.994Z,2.47
2023-04-26T08:30:58.340Z,2.83
2023-04-26T08:33:26.059Z,2.97
2023-04-26T08:35:52.860Z,2.93
2023-04-26T08:38:19.700Z,2.60
2023-04-26T08:40:46.797Z,2.80
2023-04-26T08:43:20.048Z,2.70
2023-04-26T08:45:47.286Z,2.60
2023-04-26T08:48:18.524Z,2.63
2023-04-26T08:50:46.704Z,2.27
2023-04-26T08:53:19.127Z,1.77
2023-04-26T08:55:49.541Z,1.80
2023-04-26T08:58:17.212Z,1.63
2023-04-26T09:00:45.203Z,2.60
2023-04-26T09:03:12.241Z,1.50
2023-04-26T09:05:39.807Z,2.10
2023-04-26T09:08:07.363Z,2.50
2023-04-26T09:10:35.313Z,2.07
2023-04-26T09:13:01.991Z,1.93
2023-04-26T09:15:28.896Z,1.90
2023-04-26T09:17:56.514Z,2.00
2023-04-26T09:20:26.272Z,2.00
2023-04-26T09:22:53.581Z,2.30
2023-04-26T09:25:27.355Z,1.40
2023-04-26T09:27:53.978Z,1.57
2023-04-26T09:30:21.094Z,1.50
2023-04-26T09:32:47.949Z,1.30
2023-04-26T09:35:33.594Z,1.20
2023-04-26T09:38:09.695Z,1.97
2023-04-26T09:41:01.113Z,1.70
2023-04-26T09:43:27.989Z,2.00
2023-04-26T09:45:58.208Z,2.20
2023-04-26T09:48:26.303Z,2.30
2023-04-26T09:50:54.494Z,1.47
2023-04-26T09:53:26.869Z,1.43
2023-04-26T09:55:58.124Z,1.33
2023-04-26T09:58:24.889Z,1.70
2023-04-26T10:00:51.772Z,1.30
2023-04-26T10:03:19.365Z,1.83
2023-04-26T10:05:46.634Z,2.07
2023-04-26T10:08:13.448Z,2.20
2023-04-26T10:10:40.157Z,2.40
2023-04-26T10:13:07.004Z,1.90
2023-04-26T10:15:33.651Z,2.30
2023-04-26T10:18:00.448Z,2.57
2023-04-26T10:20:27.858Z,1.97
2023-04-26T10:22:55.718Z,2.33
2023-04-26T10:25:22.560Z,2.57
2023-04-26T10:27:49.507Z,2.50
2023-04-26T10:30:16.714Z,2.33
2023-04-26T10:32:56.979Z,2.13
2023-04-26T10:35:24.643Z,2.23
2023-04-26T10:38:00.238Z,3.70
2023-04-26T10:40:27.537Z,3.73
2023-04-26T10:43:24.362Z,4.47
2023-04-26T10:45:52.026Z,3.27
2023-04-26T10:48:19.977Z,2.53
2023-04-26T10:51:02.510Z,2.90
2023-04-26T10:53:29.876Z,2.60
2023-04-26T10:55:56.590Z,2.60
2023-04-26T10:58:30.204Z,3.80
2023-04-26T11:01:13.458Z,3.30
2023-04-26T11:03:43.752Z,3.27
2023-04-26T11:06:13.821Z,3.20
2023-04-26T11:08:40.550Z,3.20
2023-04-26T11:11:11.309Z,3.53
2023-04-26T11:13:39.396Z,3.10
2023-04-26T11:16:07.203Z,3.37
2023-04-26T11:18:34.300Z,2.40
2023-04-26T11:21:01.156Z,2.43
2023-04-26T11:23:28.621Z,1.80
2023-04-26T11:26:04.734Z,2.30
2023-04-26T11:28:34.075Z,2.03
2023-04-26T11:31:02.024Z,1.53
2023-04-26T11:33:28.746Z,2.47
2023-04-26T11:35:56.115Z,1.77
2023-04-26T11:38:25.166Z,2.07
2023-04-26T11:40:58.562Z,1.93
2023-04-26T11:43:34.406Z,1.63
2023-04-26T11:46:04.257Z,1.90
2023-04-26T11:48:31.048Z,2.03
2023-04-26T11:50:58.827Z,1.63
2023-04-26T11:53:25.827Z,1.70
2023-04-26T11:55:53.235Z,1.60
2023-04-26T11:58:19.877Z,1.90
2023-04-26T12:01:00.065Z,1.57
2023-04-26T12:03:35.624Z,1.67
2023-04-26T12:06:04.076Z,1.40
2023-04-26T12:08:32.172Z,1.50
2023-04-26T12:11:02.214Z,1.90
2023-04-26T12:13:30.420Z,1.47
2023-04-26T12:15:57.155Z,1.40
2023-04-26T12:18:29.627Z,1.73
2023-04-26T12:20:59.225Z,1.47
2023-04-26T12:23:26.718Z,1.80
2023-04-26T12:25:56.889Z,1.30
2023-04-26T12:28:23.749Z,2.03
2023-04-26T12:30:50.966Z,1.40
2023-04-26T12:33:19.961Z,1.40
2023-04-26T12:35:46.951Z,1.50
2023-04-26T12:38:14.214Z,1.50
2023-04-26T12:40:41.895Z,1.30
2023-04-26T12:43:08.754Z,1.23
2023-04-26T12:45:35.474Z,1.70
2023-04-26T12:48:02.347Z,1.47
2023-04-26T12:50:29.289Z,1.67
2023-04-26T12:52:56.546Z,1.93
2023-04-26T12:55:23.423Z,2.90
2023-04-26T12:57:50.179Z,1.43
2023-04-26T13:00:17.746Z,1.60
2023-04-26T13:02:44.588Z,1.70
2023-04-26T13:05:12.014Z,2.03
2023-04-26T13:07:40.049Z,1.63
2023-04-26T13:10:07.196Z,1.17
2023-04-26T13:12:39.617Z,1.37
2023-04-26T13:15:07.647Z,1.60
2023-04-26T13:17:34.900Z,1.37
2023-04-26T13:20:02.525Z,1.30
2023-04-26T13:22:29.534Z,1.30
2023-04-26T13:24:56.280Z,1.20
2023-04-26T13:27:23.035Z,0.60
2023-04-26T13:29:49.643Z,1.23
2023-04-26T13:32:16.403Z,1.10
2023-04-26T13:34:45.773Z,1.23
2023-04-26T13:37:12.948Z,1.40
2023-04-26T13:39:39.594Z,1.47
2023-04-26T13:42:06.375Z,1.40
2023-04-26T13:44:34.088Z,1.50
2023-04-26T13:47:01.033Z,1.40
2023-04-26T13:49:27.757Z,1.70
2023-04-26T13:51:54.361Z,1.27
2023-04-26T13:54:25.910Z,1.40
2023-04-26T13:56:52.867Z,1.63
2023-04-26T13:59:19.715Z,1.53
2023-04-26T14:01:46.776Z,1.40
2023-04-26T14:04:14.487Z,1.10
2023-04-26T14:06:41.602Z,1.60
2023-04-26T14:09:08.863Z,1.20
2023-04-26T14:11:36.416Z,1.23
2023-04-26T14:14:03.034Z,1.50
2023-04-26T14:16:29.780Z,1.50
2023-04-26T14:18:56.662Z,1.80
2023-04-26T14:21:23.379Z,0.93
2023-04-26T14:23:50.374Z,1.50
2023-04-26T14:26:18.753Z,1.57
2023-04-26T14:28:45.373Z,1.53
2023-04-26T14:31:12.995Z,1.10
2023-04-26T14:33:39.760Z,1.40
2023-04-26T14:36:07.368Z,1.80
2023-04-26T14:38:34.012Z,1.20
2023-04-26T14:41:00.895Z,1.23
2023-04-26T14:43:27.517Z,1.40
2023-04-26T14:45:54.221Z,1.60
2023-04-26T14:48:20.930Z,1.70
2023-04-26T14:50:47.780Z,1.53
2023-04-26T14:53:14.460Z,1.47
2023-04-26T14:55:41.185Z,1.40
2023-04-26T14:58:08.035Z,1.47
2023-04-26T15:00:34.620Z,1.30
2023-04-26T15:03:02.723Z,1.30
2023-04-26T15:05:32.028Z,1.53
2023-04-26T15:07:58.684Z,0.93
2023-04-26T15:10:25.347Z,0.90
2023-04-26T15:12:52.790Z,1.40
2023-04-26T15:15:19.455Z,1.40
2023-04-26T15:17:46.328Z,1.30
2023-04-26T15:20:13.259Z,0.80
2023-04-26T15:22:40.364Z,1.00
2023-04-26T15:25:07.344Z,1.60
2023-04-26T15:27:34.543Z,1.03
2023-04-26T15:30:02.059Z,1.27
2023-04-26T15:32:28.913Z,1.30
2023-04-26T15:34:55.523Z,1.07
2023-04-26T15:37:22.216Z,0.50
2023-04-26T15:39:49.993Z,1.30
2023-04-26T15:42:17.513Z,1.03
2023-04-26T15:44:44.141Z,2.03
2023-04-26T15:47:11.905Z,1.20
2023-04-26T15:49:38.666Z,1.23
2023-04-26T15:52:05.461Z,1.20
2023-04-26T15:54:33.333Z,1.03
2023-04-26T15:57:00.011Z,1.27
2023-04-26T15:59:26.822Z,1.20
2023-04-26T16:01:53.534Z,1.47
2023-04-26T16:04:21.776Z,0.97
2023-04-26T16:06:49.734Z,1.83
2023-04-26T16:09:25.478Z,1.40
2023-04-26T16:11:52.845Z,1.40
2023-04-26T16:14:19.456Z,1.57
2023-04-26T16:16:46.480Z,1.20
2023-04-26T16:19:13.175Z,1.30
2023-04-26T16:21:40.822Z,1.13
2023-04-26T16:24:11.753Z,1.50
2023-04-26T16:26:38.936Z,1.13
2023-04-26T16:29:05.780Z,1.20
2023-04-26T16:31:32.925Z,1.10
2023-04-26T16:33:59.978Z,1.53
2023-04-26T16:36:27.418Z,1.23
2023-04-26T16:38:57.125Z,1.47
2023-04-26T16:41:25.878Z,1.20
2023-04-26T16:43:54.304Z,1.40
2023-04-26T16:46:21.158Z,1.40
2023-04-26T16:48:47.932Z,1.63
2023-04-26T16:51:14.752Z,2.17
2023-04-26T16:53:41.590Z,2.40
2023-04-26T16:56:08.795Z,2.37
2023-04-26T16:58:35.490Z,1.07
2023-04-26T17:01:02.496Z,1.80
2023-04-26T17:03:34.840Z,1.60
2023-04-26T17:06:05.841Z,1.30
2023-04-26T17:08:35.775Z,1.13
2023-04-26T17:11:02.799Z,1.17
2023-04-26T17:13:30.893Z,1.30
2023-04-26T17:15:57.542Z,1.40
2023-04-26T17:18:24.253Z,1.60
2023-04-26T17:20:56.555Z,1.10
2023-04-26T17:23:23.399Z,1.77
2023-04-26T17:25:50.193Z,1.60
2023-04-26T17:28:17.130Z,1.50
2023-04-26T17:30:43.783Z,1.30
2023-04-26T17:33:11.010Z,1.60
2023-04-26T17:35:37.841Z,1.30
2023-04-26T17:38:04.511Z,1.67
2023-04-26T17:40:32.531Z,1.60
2023-04-26T17:42:59.745Z,1.67
2023-04-26T17:45:26.425Z,1.50
2023-04-26T17:47:53.364Z,1.50
2023-04-26T17:50:22.407Z,1.87
2023-04-26T17:52:49.120Z,1.57
2023-04-26T17:55:16.210Z,1.40
2023-04-26T17:57:46.299Z,1.30
2023-04-26T18:00:16.437Z,1.43
2023-04-26T18:02:43.959Z,1.27
2023-04-26T18:05:10.862Z,1.77
2023-04-26T18:07:37.849Z,1.77
2023-04-26T18:10:04.715Z,2.00
2023-04-26T18:12:34.366Z,1.97
2023-04-26T18:15:01.112Z,1.70
2023-04-26T18:17:28.105Z,1.60
2023-04-26T18:19:54.923Z,1.87
2023-04-26T18:22:21.701Z,1.93
2023-04-26T18:24:48.457Z,2.17
2023-04-26T18:27:15.293Z,1.90
2023-04-26T18:29:43.261Z,2.23
2023-04-26T18:32:09.940Z,2.40
2023-04-26T18:34:38.053Z,2.17
2023-04-26T18:37:05.644Z,2.30
2023-04-26T18:39:32.371Z,2.80
2023-04-26T18:42:01.065Z,2.77
2023-04-26T18:44:27.802Z,3.43
2023-04-26T18:46:56.150Z,2.90
2023-04-26T18:49:27.142Z,2.97
2023-04-26T18:51:54.817Z,3.10
2023-04-26T18:54:21.433Z,3.47
2023-04-26T18:56:48.991Z,3.10
2023-04-26T18:59:15.703Z,2.60
2023-04-26T19:01:42.877Z,2.80
2023-04-26T19:04:11.130Z,3.20
2023-04-26T19:06:40.523Z,2.77
2023-04-26T19:09:08.893Z,2.57
2023-04-26T19:11:35.744Z,2.60
2023-04-26T19:14:02.726Z,3.00
2023-04-26T19:16:30.040Z,2.87
2023-04-26T19:18:58.248Z,3.00
2023-04-26T19:21:25.732Z,2.77
2023-04-26T19:23:52.481Z,2.80
2023-04-26T19:26:19.862Z,3.40
2023-04-26T19:28:46.905Z,3.20
2023-04-26T19:31:13.882Z,2.57
2023-04-26T19:33:41.607Z,2.17
2023-04-26T19:36:09.648Z,2.63
2023-04-26T19:38:36.512Z,2.40
2023-04-26T19:41:03.302Z,3.20
2023-04-26T19:43:30.162Z,3.60
2023-04-26T19:45:57.026Z,3.60
2023-04-26T19:48:27.080Z,3.50
2023-04-26T19:50:53.814Z,2.77
2023-04-26T19:53:20.501Z,3.00
2023-04-26T19:55:48.635Z,2.60
2023-04-26T19:58:17.048Z,2.57
2023-04-26T20:00:43.925Z,2.60
2023-04-26T20:03:11.351Z,2.63
2023-04-26T20:05:39.107Z,2.40
2023-04-26T20:08:06.190Z,2.77
2023-04-26T20:10:34.196Z,3.10
2023-04-26T20:13:01.586Z,3.27
2023-04-26T20:15:29.335Z,3.90
2023-04-26T20:17:58.163Z,3.80
2023-04-26T20:20:29.510Z,4.23
2023-04-26T20:22:56.376Z,3.90
2023-04-26T20:25:23.282Z,3.90
2023-04-26T20:27:50.542Z,3.47
2023-04-26T20:30:19.075Z,2.97
2023-04-26T20:32:47.266Z,3.60
2023-04-26T20:35:13.999Z,3.57
2023-04-26T20:37:43.450Z,3.03
2023-04-26T20:40:13.071Z,3.53
2023-04-26T20:42:39.802Z,3.27
2023-04-26T20:45:06.901Z,3.03
2023-04-26T20:47:36.350Z,2.90
2023-04-26T20:50:03.918Z,3.20
2023-04-26T20:52:30.765Z,2.67
2023-04-26T20:54:58.651Z,2.27
2023-04-26T20:57:25.935Z,2.33
2023-04-26T20:59:52.870Z,2.60
2023-04-26T21:02:19.565Z,2.40
2023-04-26T21:04:46.507Z,1.93
2023-04-26T21:07:13.168Z,2.33
2023-04-26T21:09:39.882Z,2.07
2023-04-26T21:12:06.844Z,1.83
2023-04-26T21:14:33.509Z,2.57
2023-04-26T21:17:02.287Z,1.93
2023-04-26T21:19:29.064Z,2.00
2023-04-26T21:21:55.826Z,2.20
2023-04-26T21:24:22.595Z,2.17
2023-04-26T21:26:49.186Z,2.10
2023-04-26T21:29:16.593Z,2.10
2023-04-26T21:31:43.284Z,2.60
2023-04-26T21:34:10.857Z,1.80
2023-04-26T21:36:37.495Z,2.10
2023-04-26T21:39:06.276Z,2.20
2023-04-26T21:41:32.906Z,2.03
2023-04-26T21:44:00.464Z,2.20
2023-04-26T21:46:28.368Z,2.07
2023-04-26T21:48:54.977Z,1.97
2023-04-26T21:51:21.601Z,1.70
2023-04-26T21:53:49.052Z,2.10
2023-04-26T21:56:15.743Z,2.10
2023-04-26T21:58:42.457Z,1.90
2023-04-26T22:01:11.234Z,1.80
2023-04-26T22:03:38.162Z,1.87
2023-04-26T22:06:05.223Z,1.90
2023-04-26T22:08:32.005Z,1.97
2023-04-26T22:10:58.920Z,2.03
2023-04-26T22:13:26.436Z,1.80
2023-04-26T22:15:54.290Z,1.73
2023-04-26T22:18:21.829Z,1.60
2023-04-26T22:20:48.365Z,1.70
2023-04-26T22:23:15.021Z,1.83
2023-04-26T22:25:41.658Z,1.70
2023-04-26T22:28:08.311Z,1.87
2023-04-26T22:30:34.916Z,1.80
2023-04-26T22:33:01.731Z,1.67
2023-04-26T22:35:28.330Z,1.93
2023-04-26T22:37:55.156Z,1.70
2023-04-26T22:40:21.775Z,1.57
2023-04-26T22:42:48.401Z,1.90
2023-04-26T22:45:15.067Z,1.73
2023-04-26T22:47:42.504Z,1.63
2023-04-26T22:50:09.397Z,1.53
2023-04-26T22:52:36.503Z,1.73
2023-04-26T22:55:03.129Z,1.80
2023-04-26T22:57:30.058Z,1.80
2023-04-26T22:59:57.620Z,1.70
2023-04-26T23:02:24.334Z,1.80
2023-04-26T23:04:51.482Z,1.70
2023-04-26T23:07:19.010Z,1.83
2023-04-26T23:09:45.719Z,1.80
2023-04-26T23:12:16.337Z,1.50
2023-04-26T23:14:44.204Z,1.73
2023-04-26T23:17:12.195Z,1.70
2023-04-26T23:19:38.874Z,1.50
2023-04-26T23:22:05.480Z,1.93
2023-04-26T23:24:32.826Z,1.63
2023-04-26T23:26:59.384Z,1.60
2023-04-26T23:29:26.158Z,1.80
2023-04-26T23:31:52.760Z,1.53
2023-04-26T23:34:19.388Z,1.90
2023-04-26T23:36:46.023Z,1.50
2023-04-26T23:39:12.901Z,1.90
2023-04-26T23:41:39.709Z,1.53
2023-04-26T23:44:06.353Z,1.80
2023-04-26T23:46:33.009Z,1.50
2023-04-26T23:48:59.693Z,1.60
2023-04-26T23:51:27.690Z,1.83
2023-04-26T23:53:54.839Z,1.40
2023-04-26T23:56:21.464Z,1.70
2023-04-26T23:58:48.156Z,1.57
